Time;durP1;ratioP1;P1;durP2;ratioP2;P2;SDS_P1;SDS_P2;PMS_P1;PMS_P2;Temp;Humidity;BMP_temperature;BMP_pressure;BME280_temperature;BME280_humidity;BME280_pressure;Samples;Min_cycle;Max_cycle;Signal;HPM_P1;HPM_P2
2022/03/16 00:00:19;;;;;;;32.07;19.03;;;4.40;99.90;;;;;;5015892;28;20186;-83
2022/03/16 00:02:45;;;;;;;29.77;19.17;;;4.30;99.90;;;;;;5016287;28;20187;-84
2022/03/16 00:05:11;;;;;;;29.70;19.13;;;4.20;99.90;;;;;;5017063;28;20245;-83
2022/03/16 00:07:38;;;;;;;28.87;19.10;;;4.10;99.90;;;;;;5015729;28;20179;-84
2022/03/16 00:10:08;;;;;;;30.13;20.10;;;4.10;99.90;;;;;;5015898;28;20182;-83
2022/03/16 00:12:34;;;;;;;25.23;16.20;;;4.20;99.90;;;;;;5015958;28;20234;-84
2022/03/16 00:15:00;;;;;;;18.97;14.03;;;4.20;99.90;;;;;;5015966;28;20183;-83
2022/03/16 00:17:26;;;;;;;14.40;11.07;;;4.20;99.90;;;;;;5015823;28;20210;-83
2022/03/16 00:19:52;;;;;;;16.23;11.80;;;4.20;99.90;;;;;;5015943;28;20276;-84
2022/03/16 00:22:17;;;;;;;14.37;10.33;;;4.20;99.90;;;;;;5015359;28;20287;-83
2022/03/16 00:24:43;;;;;;;14.00;11.13;;;4.20;99.90;;;;;;5003577;28;20192;-84
2022/03/16 00:27:09;;;;;;;16.07;11.67;;;4.10;99.90;;;;;;4995986;28;20182;-84
2022/03/16 00:29:35;;;;;;;26.20;14.70;;;4.10;99.90;;;;;;5004561;28;20257;-84
2022/03/16 00:32:01;;;;;;;33.63;14.80;;;4.10;99.90;;;;;;5015452;28;20209;-83
2022/03/16 00:34:27;;;;;;;46.37;15.50;;;4.10;99.90;;;;;;5015466;28;20630;-83
2022/03/16 00:36:53;;;;;;;31.40;16.53;;;4.10;99.90;;;;;;5015212;28;20206;-84
2022/03/16 00:39:19;;;;;;;62.70;16.93;;;4.00;99.90;;;;;;5014963;28;20183;-84
2022/03/16 00:41:45;;;;;;;28.73;16.10;;;4.00;99.90;;;;;;5015359;28;20602;-84
2022/03/16 00:44:11;;;;;;;23.53;15.80;;;4.00;99.90;;;;;;5015383;28;20191;-83
2022/03/16 00:46:36;;;;;;;37.03;15.10;;;4.00;99.90;;;;;;5015289;28;20218;-84
2022/03/16 00:49:03;;;;;;;66.83;17.90;;;4.00;99.90;;;;;;5016299;28;20266;-83
2022/03/16 00:51:29;;;;;;;64.93;14.50;;;4.00;99.90;;;;;;5015119;28;20225;-84
2022/03/16 00:53:55;;;;;;;40.23;13.10;;;3.90;99.90;;;;;;5014358;28;20218;-83
2022/03/16 00:56:21;;;;;;;29.60;12.27;;;3.90;99.90;;;;;;5016268;28;20203;-84
2022/03/16 00:58:47;;;;;;;14.63;11.07;;;4.00;99.90;;;;;;5015047;28;20623;-84
2022/03/16 01:01:13;;;;;;;14.80;10.60;;;3.90;99.90;;;;;;5015466;28;20176;-83
2022/03/16 01:03:42;;;;;;;13.87;10.33;;;4.00;99.90;;;;;;5014806;28;20524;-83
2022/03/16 01:06:12;;;;;;;12.30;9.80;;;4.00;99.90;;;;;;5015710;28;20253;-84
2022/03/16 01:08:39;;;;;;;16.90;9.40;;;3.90;99.90;;;;;;5014573;28;20577;-83
2022/03/16 01:11:05;;;;;;;13.70;9.60;;;3.90;99.90;;;;;;5014365;28;20171;-84
2022/03/16 01:13:31;;;;;;;16.20;11.27;;;3.80;99.90;;;;;;5014540;28;20633;-82
2022/03/16 01:15:56;;;;;;;19.80;10.30;;;3.80;99.90;;;;;;5014369;28;20186;-83
2022/03/16 01:18:22;;;;;;;17.27;10.57;;;3.70;99.90;;;;;;5015925;28;20563;-84
2022/03/16 01:20:48;;;;;;;18.57;9.90;;;3.70;99.90;;;;;;5015864;28;20171;-83
2022/03/16 01:23:13;;;;;;;15.63;10.70;;;3.60;99.90;;;;;;5015524;28;20175;-83
2022/03/16 01:25:39;;;;;;;14.13;10.63;;;3.50;99.90;;;;;;5014493;28;20175;-83
2022/03/16 01:28:05;;;;;;;12.10;9.77;;;3.50;99.90;;;;;;5014438;28;20233;-82
2022/03/16 01:30:30;;;;;;;13.63;10.37;;;3.50;99.90;;;;;;5015692;28;20184;-83
2022/03/16 01:32:56;;;;;;;18.87;10.93;;;3.40;99.90;;;;;;5015246;28;20191;-83
2022/03/16 01:35:22;;;;;;;18.13;10.90;;;3.40;99.90;;;;;;5014045;28;20194;-82
2022/03/16 01:37:47;;;;;;;21.37;12.60;;;3.50;99.90;;;;;;5015285;28;20715;-82
2022/03/16 01:40:13;;;;;;;14.70;11.80;;;3.50;99.90;;;;;;5014408;28;20178;-83
2022/03/16 01:42:41;;;;;;;22.53;11.23;;;3.40;99.90;;;;;;5015350;28;20181;-83
2022/03/16 01:45:07;;;;;;;32.40;11.33;;;3.50;99.90;;;;;;5014165;28;20178;-83
2022/03/16 01:47:33;;;;;;;80.80;12.47;;;3.40;99.90;;;;;;5015267;28;20175;-83
2022/03/16 01:49:59;;;;;;;25.43;11.77;;;3.30;99.90;;;;;;5014366;28;20638;-84
2022/03/16 01:52:26;;;;;;;13.57;11.33;;;3.10;99.90;;;;;;5013269;28;20542;-82
2022/03/16 01:54:53;;;;;;;14.40;10.77;;;3.20;99.90;;;;;;5014018;28;20577;-83
2022/03/16 01:57:20;;;;;;;15.87;11.83;;;3.20;99.90;;;;;;5013957;28;20239;-83
2022/03/16 01:59:46;;;;;;;13.90;11.37;;;3.30;99.90;;;;;;5015390;28;20233;-83
2022/03/16 02:02:13;;;;;;;14.23;12.00;;;3.40;99.90;;;;;;5013925;28;20285;-83
2022/03/16 02:04:40;;;;;;;13.77;11.23;;;3.40;99.90;;;;;;5013720;28;20287;-83
2022/03/16 02:07:06;;;;;;;13.40;10.57;;;3.50;99.90;;;;;;5013568;28;20213;-82
2022/03/16 02:09:32;;;;;;;14.70;11.67;;;3.60;99.90;;;;;;5013661;28;20528;-83
2022/03/16 02:11:58;;;;;;;13.67;11.40;;;3.60;99.90;;;;;;5014064;28;20177;-82
2022/03/16 02:14:24;;;;;;;14.70;11.40;;;3.60;99.90;;;;;;5013786;28;20538;-83
2022/03/16 02:16:51;;;;;;;16.70;13.17;;;3.60;99.90;;;;;;5013660;28;20211;-83
2022/03/16 02:19:17;;;;;;;17.20;12.97;;;3.60;99.90;;;;;;5013871;28;20191;-82
2022/03/16 02:21:45;;;;;;;17.40;12.63;;;3.60;99.90;;;;;;5015043;28;20171;-83
2022/03/16 02:24:11;;;;;;;18.40;14.23;;;3.60;99.90;;;;;;5013375;28;20194;-83
2022/03/16 02:26:37;;;;;;;16.87;13.73;;;3.60;99.90;;;;;;5014879;28;20504;-83
2022/03/16 02:29:03;;;;;;;18.17;14.50;;;3.60;99.90;;;;;;5013862;28;20536;-83
2022/03/16 02:31:29;;;;;;;20.53;15.33;;;3.60;99.90;;;;;;5013763;28;20188;-83
2022/03/16 02:33:55;;;;;;;17.83;13.80;;;3.60;99.90;;;;;;5013531;28;20186;-83
2022/03/16 02:36:21;;;;;;;21.47;14.33;;;3.70;99.90;;;;;;5013888;28;20677;-83
2022/03/16 02:38:47;;;;;;;22.43;15.37;;;3.60;99.90;;;;;;5013290;28;20499;-84
2022/03/16 02:41:13;;;;;;;21.73;14.93;;;3.70;99.90;;;;;;5014841;28;20165;-83
2022/03/16 02:43:39;;;;;;;18.20;14.27;;;3.60;99.90;;;;;;5013532;28;20179;-83
2022/03/16 02:46:05;;;;;;;19.90;13.47;;;3.60;99.90;;;;;;5014646;28;20543;-84
2022/03/16 02:48:31;;;;;;;18.33;13.20;;;3.60;99.90;;;;;;5013588;28;20237;-83
2022/03/16 02:50:57;;;;;;;17.90;13.73;;;3.70;99.90;;;;;;5014803;28;20166;-84
2022/03/16 02:53:23;;;;;;;21.03;13.87;;;3.70;99.90;;;;;;5013130;28;20183;-83
2022/03/16 02:55:48;;;;;;;21.13;14.43;;;3.60;99.90;;;;;;5014758;28;20179;-84
2022/03/16 02:58:16;;;;;;;20.37;14.00;;;3.60;99.90;;;;;;5013420;28;20211;-83
2022/03/16 03:00:42;;;;;;;18.00;12.90;;;3.60;99.90;;;;;;5013537;28;20190;-83
2022/03/16 03:03:08;;;;;;;20.27;13.07;;;3.60;99.90;;;;;;5013521;28;20206;-83
2022/03/16 03:05:34;;;;;;;28.87;13.93;;;3.50;99.90;;;;;;5013206;28;20255;-83
2022/03/16 03:08:00;;;;;;;23.67;14.20;;;3.50;99.90;;;;;;5014658;28;20206;-83
2022/03/16 03:10:26;;;;;;;29.37;13.67;;;3.50;99.90;;;;;;5013379;28;20229;-83
2022/03/16 03:12:52;;;;;;;21.90;13.57;;;3.50;99.90;;;;;;5013056;28;20190;-83
2022/03/16 03:15:18;;;;;;;22.33;13.10;;;3.50;99.90;;;;;;5013296;28;20186;-83
2022/03/16 03:17:44;;;;;;;28.37;13.73;;;3.50;99.90;;;;;;5013152;28;20218;-83
2022/03/16 03:20:11;;;;;;;25.83;14.33;;;3.40;99.90;;;;;;5013207;28;20637;-83
2022/03/16 03:22:37;;;;;;;27.63;12.40;;;3.40;99.90;;;;;;5013204;28;20176;-84
2022/03/16 03:25:03;;;;;;;25.67;13.13;;;3.40;99.90;;;;;;5013384;28;20495;-83
2022/03/16 03:27:30;;;;;;;26.87;12.53;;;3.40;99.90;;;;;;5014329;28;20508;-82
2022/03/16 03:29:56;;;;;;;24.53;13.93;;;3.30;99.90;;;;;;5013210;28;20614;-83
2022/03/16 03:32:22;;;;;;;18.77;11.97;;;3.30;99.90;;;;;;5014306;28;20174;-83
2022/03/16 03:34:51;;;;;;;16.63;11.47;;;3.20;99.90;;;;;;5013797;28;20513;-83
2022/03/16 03:37:18;;;;;;;13.87;10.93;;;3.20;99.90;;;;;;5016472;28;20230;-83
2022/03/16 03:39:44;;;;;;;13.87;11.40;;;3.10;99.90;;;;;;5016434;28;20171;-82
2022/03/16 03:42:14;;;;;;;14.13;10.97;;;3.20;99.90;;;;;;5017734;28;20178;-83
2022/03/16 03:44:40;;;;;;;15.47;12.17;;;3.20;99.90;;;;;;5016389;28;20265;-83
2022/03/16 03:47:07;;;;;;;13.53;11.60;;;3.10;99.90;;;;;;5017495;28;20174;-82
2022/03/16 03:49:38;;;;;;;14.03;11.13;;;3.10;99.90;;;;;;5016526;28;20175;-83
2022/03/16 03:52:04;;;;;;;13.83;11.47;;;3.00;99.90;;;;;;5017223;28;20182;-83
2022/03/16 03:54:30;;;;;;;16.33;11.93;;;3.00;99.90;;;;;;5494875;22;20298;-83
2022/03/16 03:56:56;;;;;;;16.47;12.43;;;2.90;99.90;;;;;;4978062;28;20650;-83
2022/03/16 03:59:23;;;;;;;16.47;12.57;;;2.90;99.90;;;;;;4978412;28;20192;-81
2022/03/16 04:01:49;;;;;;;18.03;12.67;;;2.80;99.90;;;;;;4997663;28;20614;-83
2022/03/16 04:04:15;;;;;;;16.37;13.20;;;2.80;99.90;;;;;;4997504;28;20222;-83
2022/03/16 04:06:41;;;;;;;18.50;13.47;;;2.70;99.90;;;;;;5029060;28;20289;-83
2022/03/16 04:09:07;;;;;;;18.10;13.57;;;2.70;99.90;;;;;;5017334;28;20195;-83
2022/03/16 04:11:33;;;;;;;15.43;11.83;;;2.70;99.90;;;;;;5009454;28;20529;-83
2022/03/16 04:13:59;;;;;;;16.77;12.37;;;2.70;99.90;;;;;;5009409;28;20189;-82
2022/03/16 04:16:24;;;;;;;13.70;10.93;;;2.70;99.90;;;;;;5009042;28;20212;-82
2022/03/16 04:18:50;;;;;;;15.23;12.33;;;2.70;99.90;;;;;;5009235;28;20637;-82
2022/03/16 04:21:16;;;;;;;17.10;12.50;;;2.70;99.90;;;;;;5009049;28;20223;-83
2022/03/16 04:23:42;;;;;;;18.37;13.23;;;2.60;99.90;;;;;;4976100;28;20229;-82
2022/03/16 04:26:08;;;;;;;16.83;12.93;;;2.50;99.90;;;;;;4976445;28;20181;-85
2022/03/16 04:28:33;;;;;;;15.90;12.30;;;2.40;99.90;;;;;;4977765;28;20485;-82
2022/03/16 04:31:02;;;;;;;15.83;12.80;;;2.40;99.90;;;;;;4992717;28;20188;-83
2022/03/16 04:33:29;;;;;;;16.53;12.63;;;2.40;99.90;;;;;;4976441;28;20620;-82
2022/03/16 04:35:54;;;;;;;14.70;12.03;;;2.30;99.90;;;;;;4976126;28;20218;-82
2022/03/16 04:38:20;;;;;;;19.53;12.13;;;2.30;99.90;;;;;;4992028;28;20252;-82
2022/03/16 04:40:46;;;;;;;20.27;12.40;;;2.20;99.90;;;;;;4977488;28;20224;-82
2022/03/16 04:43:12;;;;;;;74.00;12.67;;;2.20;99.90;;;;;;4992399;28;20221;-82
2022/03/16 04:45:39;;;;;;;36.33;13.23;;;2.10;99.90;;;;;;4976566;28;20604;-82
2022/03/16 04:48:09;;;;;;;15.77;12.70;;;2.00;99.90;;;;;;4991903;28;20174;-82
2022/03/16 04:50:38;;;;;;;15.63;12.07;;;2.00;99.90;;;;;;4980373;28;20550;-82
2022/03/16 04:53:05;;;;;;;22.27;11.77;;;2.00;99.90;;;;;;4986203;28;20197;-82
2022/03/16 04:55:31;;;;;;;55.93;12.83;;;2.10;99.90;;;;;;4996345;28;20663;-83
2022/03/16 04:57:57;;;;;;;48.10;12.07;;;2.00;99.90;;;;;;4996458;28;20219;-81
2022/03/16 05:00:24;;;;;;;34.40;11.37;;;2.00;99.90;;;;;;5028338;28;20199;-82
2022/03/16 05:02:50;;;;;;;24.00;11.40;;;2.00;99.90;;;;;;4996511;28;20202;-83
2022/03/16 05:05:15;;;;;;;19.00;10.73;;;2.00;99.90;;;;;;5027674;28;20185;-82
2022/03/16 05:07:41;;;;;;;11.93;10.33;;;2.00;99.90;;;;;;5027579;28;20187;-83
2022/03/16 05:10:07;;;;;;;12.57;10.90;;;1.90;99.90;;;;;;5027911;28;20567;-82
2022/03/16 05:12:38;;;;;;;13.93;11.10;;;1.90;99.90;;;;;;4996348;28;20246;-83
2022/03/16 05:15:06;;;;;;;13.50;10.60;;;1.80;99.90;;;;;;4996095;28;20222;-82
2022/03/16 05:17:32;;;;;;;14.97;11.43;;;1.90;99.90;;;;;;5027588;28;20212;-82
2022/03/16 05:19:57;;;;;;;14.33;11.43;;;1.90;99.90;;;;;;5027776;28;20177;-81
2022/03/16 05:22:23;;;;;;;14.53;10.97;;;1.80;99.90;;;;;;5027685;28;20216;-82
2022/03/16 05:24:49;;;;;;;14.60;11.70;;;1.90;99.90;;;;;;4994681;28;20177;-82
2022/03/16 05:27:14;;;;;;;15.07;10.80;;;1.90;99.90;;;;;;4994704;28;20180;-82
2022/03/16 05:29:40;;;;;;;13.63;10.67;;;1.80;99.90;;;;;;5027561;28;20172;-82
2022/03/16 05:32:06;;;;;;;14.77;11.47;;;1.80;99.90;;;;;;4995914;28;20177;-82
2022/03/16 05:34:32;;;;;;;13.53;10.87;;;1.80;99.90;;;;;;5027426;28;20230;-82
2022/03/16 05:36:57;;;;;;;13.20;10.33;;;1.80;99.90;;;;;;4994472;28;20210;-82
2022/03/16 05:39:26;;;;;;;13.97;11.23;;;1.80;99.90;;;;;;4994286;28;20175;-85
2022/03/16 05:41:52;;;;;;;15.17;11.77;;;1.80;99.90;;;;;;4995691;28;20251;-85
2022/03/16 05:44:17;;;;;;;14.10;10.50;;;1.80;99.90;;;;;;4994876;28;20258;-85
2022/03/16 05:46:43;;;;;;;16.70;11.77;;;1.80;99.90;;;;;;4994576;28;20179;-85
2022/03/16 05:49:09;;;;;;;14.20;11.07;;;1.90;99.90;;;;;;4995736;28;20171;-85
2022/03/16 05:51:34;;;;;;;15.77;11.83;;;1.90;99.90;;;;;;4994382;28;20190;-85
2022/03/16 05:54:00;;;;;;;15.10;11.50;;;1.90;99.90;;;;;;4993116;28;20228;-85
2022/03/16 05:56:26;;;;;;;15.13;11.17;;;1.90;99.90;;;;;;4996002;28;20215;-84
2022/03/16 05:58:51;;;;;;;14.67;11.10;;;1.90;99.90;;;;;;5026925;28;20565;-84
2022/03/16 06:01:17;;;;;;;18.40;11.40;;;1.90;99.90;;;;;;4997984;28;20658;-84
2022/03/16 06:03:43;;;;;;;16.47;12.00;;;2.00;99.90;;;;;;5025892;28;20621;-85
2022/03/16 06:06:08;;;;;;;15.37;11.23;;;2.10;99.90;;;;;;5025083;28;20182;-84
2022/03/16 06:08:34;;;;;;;14.97;10.60;;;2.10;99.90;;;;;;4994037;28;20187;-85
2022/03/16 06:11:00;;;;;;;13.17;10.63;;;2.10;99.90;;;;;;4995034;28;20227;-85
2022/03/16 06:13:26;;;;;;;12.93;10.77;;;2.10;99.90;;;;;;5026651;28;20322;-84
2022/03/16 06:15:51;;;;;;;18.37;10.80;;;2.10;99.90;;;;;;5026751;28;20183;-84
2022/03/16 06:18:17;;;;;;;14.40;10.93;;;2.10;99.90;;;;;;5026494;28;20203;-85
2022/03/16 06:20:42;;;;;;;13.97;10.70;;;2.10;99.90;;;;;;5026794;28;20176;-84
2022/03/16 06:23:08;;;;;;;13.33;10.27;;;2.20;99.90;;;;;;5026661;28;20272;-84
2022/03/16 06:25:34;;;;;;;15.97;10.50;;;2.30;99.90;;;;;;4995362;28;20176;-85
2022/03/16 06:28:01;;;;;;;14.13;10.73;;;2.30;99.90;;;;;;5026887;28;20181;-85
2022/03/16 06:30:27;;;;;;;16.93;12.03;;;2.40;99.90;;;;;;5027135;28;20250;-85
2022/03/16 06:32:52;;;;;;;14.67;10.47;;;2.40;99.90;;;;;;5026922;28;20184;-85
2022/03/16 06:35:18;;;;;;;15.90;10.87;;;2.50;99.90;;;;;;4995291;28;20261;-85
2022/03/16 06:37:45;;;;;;;16.07;11.67;;;2.60;99.90;;;;;;5026820;28;20641;-85
2022/03/16 06:40:12;;;;;;;15.40;11.50;;;2.60;99.90;;;;;;5026644;28;20232;-83
2022/03/16 06:42:53;;;;;;;13.50;10.70;;;2.70;99.90;;;;;;5026938;28;20184;-83
2022/03/16 06:45:20;;;;;;;15.00;11.07;;;2.80;99.90;;;;;;4995163;28;20639;-83
2022/03/16 06:47:46;;;;;;;16.40;11.60;;;2.80;99.90;;;;;;4994984;28;20187;-83
2022/03/16 06:50:14;;;;;;;17.40;11.60;;;2.90;99.90;;;;;;4995162;28;20172;-84
2022/03/16 06:52:41;;;;;;;15.83;11.53;;;3.00;99.90;;;;;;5026351;28;20192;-84
2022/03/16 06:55:08;;;;;;;15.07;11.70;;;3.10;99.90;;;;;;5026265;28;20321;-84
2022/03/16 06:57:34;;;;;;;20.07;13.07;;;3.10;99.90;;;;;;4995001;28;20208;-83
2022/03/16 07:00:01;;;;;;;18.67;12.83;;;3.10;99.90;;;;;;5026766;28;20209;-83
2022/03/16 07:02:27;;;;;;;22.07;12.50;;;3.30;99.90;;;;;;5026767;28;20521;-83
2022/03/16 07:04:53;;;;;;;20.10;13.13;;;3.40;99.90;;;;;;5026372;28;20180;-83
2022/03/16 07:07:18;;;;;;;18.80;13.37;;;3.40;99.90;;;;;;5026689;28;20188;-84
2022/03/16 07:09:44;;;;;;;17.30;13.40;;;3.60;99.90;;;;;;4996221;28;20165;-84
2022/03/16 07:12:10;;;;;;;16.07;12.50;;;3.70;99.90;;;;;;5030488;28;20257;-84
2022/03/16 07:14:36;;;;;;;20.47;12.97;;;3.80;99.90;;;;;;5030682;28;20226;-84
2022/03/16 07:17:03;;;;;;;20.17;14.10;;;3.90;99.90;;;;;;4998425;28;20520;-84
2022/03/16 07:19:29;;;;;;;19.60;14.60;;;3.90;99.90;;;;;;5030240;28;20188;-84
2022/03/16 07:22:00;;;;;;;25.57;16.13;;;4.00;99.90;;;;;;5030499;28;20190;-83
2022/03/16 07:24:26;;;;;;;22.20;16.00;;;4.00;99.90;;;;;;5030177;28;20187;-84
2022/03/16 07:26:53;;;;;;;24.53;16.47;;;4.10;99.90;;;;;;5030172;28;20194;-84
2022/03/16 07:29:19;;;;;;;29.23;16.33;;;4.10;99.90;;;;;;4998455;28;20660;-84
2022/03/16 07:31:45;;;;;;;31.70;18.07;;;4.10;99.90;;;;;;5030139;28;20250;-84
2022/03/16 07:34:12;;;;;;;30.70;19.00;;;4.10;99.90;;;;;;5030176;28;20615;-84
2022/03/16 07:36:37;;;;;;;27.83;16.97;;;4.10;99.90;;;;;;5029894;28;20230;-84
2022/03/16 07:39:03;;;;;;;24.47;16.70;;;4.10;99.90;;;;;;5029676;28;20617;-84
2022/03/16 07:41:29;;;;;;;24.23;16.40;;;4.20;99.90;;;;;;5029950;28;20266;-83
2022/03/16 07:43:55;;;;;;;25.23;15.90;;;4.30;99.90;;;;;;5029995;28;20208;-83
2022/03/16 07:46:20;;;;;;;23.30;15.70;;;4.30;99.90;;;;;;5029539;28;20336;-84
2022/03/16 07:48:46;;;;;;;26.13;15.80;;;4.40;99.90;;;;;;5029787;28;20188;-82
2022/03/16 07:51:12;;;;;;;22.53;15.63;;;4.50;99.90;;;;;;5029463;28;20172;-83
2022/03/16 07:53:38;;;;;;;22.27;14.83;;;4.70;99.90;;;;;;5028918;28;20201;-83
2022/03/16 07:56:05;;;;;;;23.30;15.57;;;4.80;99.90;;;;;;5029689;28;20188;-84
2022/03/16 07:58:30;;;;;;;22.13;15.17;;;4.80;99.90;;;;;;5029573;28;20219;-83
2022/03/16 08:00:56;;;;;;;24.87;16.40;;;4.90;99.90;;;;;;4997843;28;20164;-83
2022/03/16 08:03:21;;;;;;;23.23;16.03;;;4.90;99.90;;;;;;5029482;28;20187;-84
2022/03/16 08:05:47;;;;;;;23.97;15.87;;;4.90;99.90;;;;;;5028809;28;20180;-84
2022/03/16 08:08:14;;;;;;;22.97;15.27;;;5.00;99.90;;;;;;4997629;28;20607;-81
2022/03/16 08:10:39;;;;;;;25.57;16.47;;;5.10;99.90;;;;;;4997467;28;20168;-83
2022/03/16 08:13:05;;;;;;;21.07;14.90;;;5.10;99.90;;;;;;5029173;28;20187;-82
2022/03/16 08:15:32;;;;;;;26.93;14.70;;;5.30;99.90;;;;;;5028856;28;20694;-83
2022/03/16 08:17:57;;;;;;;22.50;14.23;;;5.30;99.90;;;;;;4997241;28;20654;-83
2022/03/16 08:20:23;;;;;;;20.20;13.30;;;5.40;99.90;;;;;;5028866;28;20183;-83
2022/03/16 08:22:54;;;;;;;22.20;14.10;;;5.40;99.90;;;;;;5028905;28;20183;-83
2022/03/16 08:25:20;;;;;;;23.60;14.33;;;5.60;99.90;;;;;;5020188;28;20180;-82
2022/03/16 08:27:45;;;;;;;19.33;14.13;;;5.60;99.90;;;;;;4992904;28;20256;-83
2022/03/16 08:30:13;;;;;;;22.87;15.27;;;5.80;99.90;;;;;;5028615;28;20207;-83
2022/03/16 08:32:40;;;;;;;23.67;14.67;;;5.80;99.90;;;;;;5028840;28;20632;-83
2022/03/16 08:35:06;;;;;;;23.27;14.93;;;5.90;99.90;;;;;;5028701;28;20216;-83
2022/03/16 08:37:32;;;;;;;20.60;14.17;;;5.90;99.90;;;;;;5028468;28;20641;-83
2022/03/16 08:39:58;;;;;;;20.43;14.87;;;6.00;99.90;;;;;;5028645;28;20176;-83
2022/03/16 08:42:23;;;;;;;20.00;14.40;;;6.10;99.90;;;;;;4996974;28;20259;-83
2022/03/16 08:44:49;;;;;;;23.63;15.47;;;6.20;99.90;;;;;;5028403;28;20180;-83
2022/03/16 08:47:16;;;;;;;22.60;15.10;;;6.30;99.90;;;;;;5028275;28;20222;-83
2022/03/16 08:49:44;;;;;;;20.57;14.53;;;6.40;99.90;;;;;;5028378;28;20677;-83
2022/03/16 08:52:10;;;;;;;21.07;14.90;;;6.50;99.90;;;;;;5028580;28;20175;-83
2022/03/16 08:54:36;;;;;;;19.90;13.80;;;6.60;99.90;;;;;;5027910;28;20319;-83
2022/03/16 08:57:03;;;;;;;19.37;13.20;;;6.70;99.90;;;;;;4996308;28;20242;-83
2022/03/16 08:59:29;;;;;;;20.43;13.13;;;6.70;99.90;;;;;;5028116;28;20233;-83
2022/03/16 09:01:54;;;;;;;20.63;13.67;;;6.80;99.90;;;;;;4996863;28;20172;-83
2022/03/16 09:04:21;;;;;;;22.07;13.63;;;6.90;99.90;;;;;;5028069;28;20180;-83
2022/03/16 09:06:48;;;;;;;21.23;14.07;;;7.00;99.90;;;;;;4995311;28;20623;-82
2022/03/16 09:09:14;;;;;;;18.93;12.97;;;7.10;99.90;;;;;;4995172;28;20510;-83
2022/03/16 09:11:40;;;;;;;15.50;12.17;;;7.20;99.90;;;;;;4995082;28;20176;-83
2022/03/16 09:14:06;;;;;;;20.70;13.10;;;7.40;99.90;;;;;;4995141;28;20274;-83
2022/03/16 09:16:32;;;;;;;20.17;13.87;;;7.50;99.90;;;;;;4994826;28;20681;-83
2022/03/16 09:18:58;;;;;;;22.27;13.07;;;7.60;99.90;;;;;;4994987;28;20524;-83
2022/03/16 09:21:26;;;;;;;19.70;13.23;;;7.80;99.90;;;;;;4994829;28;20172;-83
2022/03/16 09:23:55;;;;;;;22.73;13.63;;;7.90;99.90;;;;;;4994857;28;20505;-83
2022/03/16 09:26:21;;;;;;;20.67;13.00;;;8.00;99.90;;;;;;4994770;28;20180;-83
2022/03/16 09:28:48;;;;;;;21.90;12.67;;;8.10;99.90;;;;;;4994839;28;20192;-83
2022/03/16 09:31:14;;;;;;;20.80;13.07;;;8.20;99.90;;;;;;4994865;28;20165;-84
2022/03/16 09:33:40;;;;;;;20.60;11.93;;;8.20;99.90;;;;;;4994244;28;20261;-83
2022/03/16 09:36:08;;;;;;;19.43;12.33;;;8.30;99.90;;;;;;4995993;28;20172;-83
2022/03/16 09:38:34;;;;;;;18.40;12.57;;;8.40;99.90;;;;;;5027470;28;20521;-83
2022/03/16 09:41:01;;;;;;;17.97;11.20;;;8.50;99.90;;;;;;5027166;28;20207;-83
2022/03/16 09:43:30;;;;;;;21.63;11.80;;;8.50;99.90;;;;;;5027629;28;20187;-83
2022/03/16 09:46:11;;;;;;;19.23;11.83;;;8.60;99.90;;;;;;5027356;28;20172;-83
2022/03/16 09:48:41;;;;;;;20.37;12.57;;;8.50;99.90;;;;;;5027384;28;20513;-83
2022/03/16 09:51:09;;;;;;;18.37;12.17;;;8.50;99.90;;;;;;5027248;28;20245;-83
2022/03/16 09:53:35;;;;;;;19.30;12.07;;;8.40;99.90;;;;;;4995497;28;20172;-83
2022/03/16 09:56:01;;;;;;;18.70;12.17;;;8.40;99.90;;;;;;4995381;28;20287;-83
2022/03/16 09:58:27;;;;;;;20.57;12.17;;;8.40;99.90;;;;;;5027029;28;20211;-83
2022/03/16 10:00:53;;;;;;;18.90;11.60;;;8.50;99.90;;;;;;4995617;28;20603;-83
2022/03/16 10:03:22;;;;;;;19.30;11.27;;;8.60;99.90;;;;;;5027274;28;20183;-83
2022/03/16 10:05:50;;;;;;;15.77;11.60;;;8.80;99.90;;;;;;5026741;28;20271;-82
2022/03/16 10:08:42;;;;;;;18.80;11.77;;;9.10;99.90;;;;;;4995270;28;20184;-83
2022/03/16 10:14:07;;;;;;;19.63;11.73;;;9.40;99.90;;;;;;4995585;28;20187;-83
2022/03/16 10:19:22;;;;;;;17.10;10.93;;;9.50;99.90;;;;;;4995644;28;20271;-83
2022/03/16 10:22:02;;;;;;;18.67;11.97;;;9.50;99.90;;;;;;5026869;28;20529;-84
2022/03/16 10:24:30;;;;;;;17.97;11.70;;;9.40;99.90;;;;;;5026536;28;20191;-83
2022/03/16 10:27:00;;;;;;;20.50;11.70;;;9.40;99.90;;;;;;4994999;28;20184;-83
2022/03/16 10:29:27;;;;;;;18.30;11.40;;;9.40;99.90;;;;;;5026699;28;20211;-82
2022/03/16 10:32:01;;;;;;;19.93;11.40;;;9.50;99.90;;;;;;5026921;28;20179;-83
2022/03/16 10:34:27;;;;;;;18.57;11.07;;;9.60;99.90;;;;;;5026786;28;20192;-83
2022/03/16 10:36:52;;;;;;;19.00;11.30;;;9.70;99.90;;;;;;5026346;28;20713;-83
2022/03/16 10:39:31;;;;;;;18.27;10.97;;;9.70;99.90;;;;;;5026241;28;20182;-83
2022/03/16 10:48:22;;;;;;;16.93;10.80;;;9.80;99.90;;;;;;4997848;28;20186;-83
2022/03/16 10:50:50;;;;;;;18.13;10.57;;;9.90;99.90;;;;;;5030525;28;20183;-84
2022/03/16 10:53:17;;;;;;;17.17;10.13;;;10.00;99.90;;;;;;5029887;28;20184;-83
2022/03/16 10:55:45;;;;;;;17.50;10.67;;;10.00;99.90;;;;;;5029967;28;20736;-82
2022/03/16 10:58:12;;;;;;;18.77;10.67;;;10.00;99.90;;;;;;5030124;28;20208;-83
2022/03/16 11:00:39;;;;;;;17.33;9.57;;;10.20;99.90;;;;;;5030458;28;20179;-83
2022/03/16 11:03:07;;;;;;;18.97;10.27;;;10.20;99.90;;;;;;4998788;28;20219;-82
2022/03/16 11:05:36;;;;;;;19.43;10.63;;;10.30;99.90;;;;;;5030281;28;20176;-83
2022/03/16 11:08:09;;;;;;;17.67;10.20;;;10.30;99.90;;;;;;5030285;28;20238;-83
2022/03/16 11:10:40;;;;;;;17.00;10.80;;;10.30;99.90;;;;;;5029941;28;20487;-83
2022/03/16 11:15:53;;;;;;;18.73;10.17;;;10.40;99.90;;;;;;4998786;28;20190;-82
2022/03/16 11:18:20;;;;;;;16.88;9.10;;;10.50;99.90;;;;;;5029767;28;20547;-83
2022/03/16 11:20:54;;;;;;;15.57;9.25;;;10.60;99.90;;;;;;4998276;28;20179;-83
2022/03/16 11:26:34;;;;;;;17.63;9.02;;;10.90;99.90;;;;;;4998256;28;20175;-83
2022/03/16 11:29:18;;;;;;;17.60;9.30;;;11.00;99.90;;;;;;4998073;28;20164;-83
2022/03/16 11:31:44;;;;;;;16.05;8.82;;;11.10;99.90;;;;;;5029893;28;20160;-82
2022/03/16 11:34:11;;;;;;;17.33;9.80;;;11.20;99.90;;;;;;5029885;28;20215;-82
2022/03/16 11:36:41;;;;;;;17.00;9.95;;;11.40;99.90;;;;;;5029434;28;20210;-83
2022/03/16 11:39:18;;;;;;;15.77;9.85;;;11.60;99.90;;;;;;5029288;28;20184;-83
2022/03/16 11:41:55;;;;;;;16.92;10.07;;;11.80;99.90;;;;;;5029834;28;20554;-83
2022/03/16 11:44:28;;;;;;;19.85;9.90;;;11.90;99.90;;;;;;5029667;28;20381;-83
2022/03/16 11:47:09;;;;;;;14.77;8.52;;;11.90;99.90;;;;;;5029657;28;20175;-83
2022/03/16 11:49:42;;;;;;;12.35;8.30;;;11.90;99.90;;;;;;5028781;28;20614;-83
2022/03/16 11:52:11;;;;;;;15.55;8.48;;;11.80;99.90;;;;;;5029347;28;20180;-82
2022/03/16 11:54:46;;;;;;;16.58;8.85;;;11.80;99.90;;;;;;5029006;28;20234;-82
2022/03/16 11:57:13;;;;;;;14.68;8.05;;;11.80;99.90;;;;;;5028969;28;20211;-83
2022/03/16 11:59:46;;;;;;;13.02;7.78;;;11.80;99.90;;;;;;5029207;28;20188;-83
2022/03/16 12:02:25;;;;;;;16.67;8.52;;;11.80;99.90;;;;;;5029352;28;20226;-82
2022/03/16 12:04:56;;;;;;;14.27;7.38;;;11.80;99.90;;;;;;5029184;28;20183;-83
2022/03/16 12:07:23;;;;;;;16.85;9.05;;;11.90;99.90;;;;;;5028862;28;20172;-83
2022/03/16 12:10:16;;;;;;;19.53;8.00;;;12.00;99.90;;;;;;5028993;28;20568;-83
2022/03/16 12:12:54;;;;;;;12.20;7.40;;;11.90;99.90;;;;;;4995805;28;20187;-84
2022/03/16 12:15:39;;;;;;;17.40;8.48;;;12.00;99.90;;;;;;5028699;28;20172;-82
2022/03/16 12:18:07;;;;;;;12.15;6.45;;;12.00;99.90;;;;;;5028677;28;20215;-83
2022/03/16 12:20:36;;;;;;;14.50;7.63;;;12.10;99.90;;;;;;4996054;28;20283;-83
2022/03/16 12:23:05;;;;;;;12.43;7.28;;;12.10;99.90;;;;;;4997227;28;20510;-82
2022/03/16 12:25:35;;;;;;;14.13;7.57;;;12.10;99.90;;;;;;4995487;28;20541;-83
2022/03/16 12:31:11;;;;;;;13.10;7.25;;;12.30;99.90;;;;;;4996840;28;20312;-83
2022/03/16 12:33:46;;;;;;;13.88;8.50;;;12.30;99.90;;;;;;5028606;28;20180;-83
2022/03/16 12:36:13;;;;;;;14.82;8.57;;;12.30;99.90;;;;;;5028447;28;20175;-83
2022/03/16 12:38:50;;;;;;;16.75;9.85;;;12.40;99.90;;;;;;5028432;28;20307;-83
2022/03/16 12:44:07;;;;;;;15.18;9.02;;;12.30;99.90;;;;;;4997327;28;20183;-82
2022/03/16 12:46:33;;;;;;;16.33;9.18;;;12.30;99.90;;;;;;5028420;28;20211;-83
2022/03/16 12:49:12;;;;;;;15.02;9.43;;;12.30;99.90;;;;;;4997045;28;20250;-84
2022/03/16 12:51:45;;;;;;;17.55;8.82;;;12.30;99.90;;;;;;4997037;28;20160;-83
2022/03/16 12:54:26;;;;;;;17.77;9.88;;;12.30;99.90;;;;;;4996852;28;20548;-83
2022/03/16 12:56:58;;;;;;;17.38;8.48;;;12.30;99.90;;;;;;5028164;28;20250;-83
2022/03/16 12:59:26;;;;;;;14.98;9.30;;;12.30;99.90;;;;;;5028397;28;20191;-83